KPNE

Northeast Philadelphia Airport

Philadelphia, Pennsylvania, USA
METAR KPNE 212154Z 06007KT 010V100 10SM CLR 29/16 A2978 RMK AO2 SLP083 T02940161
Observed Flight Rules
Jun-21 @ 21:54 UTC (11 minutes ago) Visual Flight Rules
Wind Visibility Clouds
60° at 7 knots 10 miles
  • Clear skies
Temperatures Readings
Current 29°C / 84°F
Dewpoint 16°C / 61°F
Humidity 45%
Altimeter 29.78" Hg
Pressure 1008.3 hPa
Elevation 28
METAR KPNE 212154Z 06007KT 010V100 10SM CLR 29/16 A2978 RMK AO2 SLP083 T02940161
Observed Flight Rules
Jun-21 @ 21:54 UTC
(11 minutes ago)
VFR
Wind Visibility
60° at 7 knots 10 miles
Clouds
  • Clear skies
Temperature Dewpoint
29°C / 84°F 16°C / 61°F
Humidity Altimeter Pressure
45% 29.78" Hg 1008.3 hPa